createdAt,value
2018-09-17T00:00:02.324Z,6.60
2018-09-17T00:02:30.570Z,7.17
2018-09-17T00:04:58.814Z,7.40
2018-09-17T00:07:27.062Z,6.97
2018-09-17T00:09:55.327Z,7.17
2018-09-17T00:12:23.574Z,6.23
2018-09-17T00:14:51.830Z,7.90
2018-09-17T00:17:20.089Z,6.83
2018-09-17T00:19:48.379Z,6.70
2018-09-17T00:22:17.416Z,6.93
2018-09-17T00:24:45.664Z,7.20
2018-09-17T00:27:13.911Z,7.27
2018-09-17T00:29:42.178Z,6.13
2018-09-17T00:32:10.430Z,5.53
2018-09-17T00:34:38.693Z,6.63
2018-09-17T00:37:06.944Z,6.37
2018-09-17T00:39:35.213Z,6.13
2018-09-17T00:42:03.466Z,5.83
2018-09-17T00:44:31.724Z,5.87
2018-09-17T00:46:59.966Z,6.13
2018-09-17T00:49:28.222Z,6.13
2018-09-17T00:51:56.478Z,5.57
2018-09-17T00:54:24.750Z,6.40
2018-09-17T00:56:53.006Z,6.27
2018-09-17T00:59:21.280Z,6.97
2018-09-17T01:01:49.539Z,6.90
2018-09-17T01:04:17.813Z,7.07
2018-09-17T01:06:46.074Z,7.80
2018-09-17T01:09:19.817Z,6.70
2018-09-17T01:11:48.102Z,7.00
2018-09-17T01:14:16.448Z,6.90
2018-09-17T01:16:44.841Z,6.93
2018-09-17T01:19:13.142Z,6.70
2018-09-17T01:21:41.411Z,7.10
2018-09-17T01:24:09.674Z,8.00
2018-09-17T01:26:37.968Z,7.10
2018-09-17T01:29:06.254Z,7.03
2018-09-17T01:31:34.525Z,7.37
2018-09-17T01:34:02.798Z,8.07
2018-09-17T01:36:31.075Z,6.93
2018-09-17T01:38:59.358Z,6.73
2018-09-17T01:41:27.957Z,6.00
2018-09-17T01:43:56.224Z,6.47
2018-09-17T01:46:24.511Z,6.70
2018-09-17T01:48:52.757Z,6.10
2018-09-17T01:51:21.185Z,8.23
2018-09-17T01:53:49.472Z,6.20
2018-09-17T01:56:17.734Z,6.50
2018-09-17T01:58:46.022Z,6.90
2018-09-17T02:01:14.243Z,8.47
2018-09-17T02:03:42.713Z,6.63
2018-09-17T02:06:10.938Z,8.13
2018-09-17T02:08:39.265Z,8.00
2018-09-17T02:11:07.752Z,8.10
2018-09-17T02:13:36.211Z,7.40
2018-09-17T02:16:04.441Z,7.27
2018-09-17T02:18:32.673Z,8.90
2018-09-17T02:21:00.909Z,8.20
2018-09-17T02:23:29.149Z,7.43
2018-09-17T02:25:57.389Z,8.13
2018-09-17T02:28:25.638Z,7.10
2018-09-17T02:30:53.875Z,8.10
2018-09-17T02:33:22.119Z,7.83
2018-09-17T02:35:50.414Z,8.60
2018-09-17T02:38:18.650Z,8.40
2018-09-17T02:40:46.955Z,8.93
2018-09-17T02:43:15.199Z,9.57
2018-09-17T02:45:43.428Z,9.30
2018-09-17T02:48:11.666Z,9.90
2018-09-17T02:50:39.904Z,9.53
2018-09-17T02:53:08.258Z,9.13
2018-09-17T02:55:36.506Z,10.77
2018-09-17T02:58:04.839Z,9.93
2018-09-17T03:00:33.101Z,9.83
2018-09-17T03:03:01.367Z,9.17
2018-09-17T03:05:29.632Z,8.67
2018-09-17T03:07:57.907Z,8.63
2018-09-17T03:10:26.166Z,8.57
2018-09-17T03:12:54.421Z,8.60
2018-09-17T03:15:34.104Z,8.93
2018-09-17T03:18:02.361Z,9.00
2018-09-17T03:20:30.618Z,8.70
2018-09-17T03:22:58.890Z,9.03
2018-09-17T03:25:27.155Z,8.80
2018-09-17T03:27:55.463Z,8.40
2018-09-17T03:30:23.735Z,9.37
2018-09-17T03:32:52.142Z,7.90
2018-09-17T03:35:20.401Z,8.20
2018-09-17T03:37:48.650Z,7.87
2018-09-17T03:40:16.913Z,8.00
2018-09-17T03:42:45.294Z,8.57
2018-09-17T03:45:13.551Z,7.90
2018-09-17T03:47:41.808Z,7.60
2018-09-17T03:50:10.072Z,7.20
2018-09-17T03:52:38.333Z,7.80
2018-09-17T03:55:06.608Z,7.63
2018-09-17T03:57:34.875Z,8.47
2018-09-17T04:00:03.136Z,8.50
2018-09-17T04:02:31.398Z,8.53
2018-09-17T04:04:59.672Z,9.13
2018-09-17T04:07:27.931Z,9.27
2018-09-17T04:09:56.183Z,8.87
2018-09-17T04:12:24.458Z,9.67
2018-09-17T04:14:52.874Z,10.20
2018-09-17T04:17:21.165Z,9.30
2018-09-17T04:19:49.936Z,9.33
2018-09-17T04:22:18.222Z,9.77
2018-09-17T04:24:46.641Z,9.73
2018-09-17T04:27:14.910Z,9.70
2018-09-17T04:29:43.188Z,9.53
2018-09-17T04:32:11.450Z,9.30
2018-09-17T04:34:39.706Z,9.60
2018-09-17T04:37:07.979Z,10.37
2018-09-17T04:39:36.317Z,10.03
2018-09-17T04:42:04.609Z,10.10
2018-09-17T04:44:32.868Z,9.53
2018-09-17T04:47:01.207Z,10.17
2018-09-17T04:49:29.480Z,10.17
2018-09-17T04:51:57.730Z,10.57
2018-09-17T04:54:26.017Z,10.30
2018-09-17T04:56:54.368Z,10.43
2018-09-17T04:59:22.636Z,9.70
2018-09-17T05:01:50.891Z,10.77
2018-09-17T05:04:19.162Z,10.70
2018-09-17T05:06:47.747Z,9.60
2018-09-17T05:09:16.124Z,10.43
2018-09-17T05:11:44.390Z,9.90
2018-09-17T05:14:12.774Z,9.63
2018-09-17T05:16:41.034Z,9.80
2018-09-17T05:19:09.317Z,9.93
2018-09-17T05:21:37.672Z,9.70
2018-09-17T05:24:06.052Z,9.77
2018-09-17T05:26:34.312Z,9.03
2018-09-17T05:29:02.574Z,9.27
2018-09-17T05:31:30.839Z,12.67
2018-09-17T05:33:59.139Z,8.60
2018-09-17T05:36:27.362Z,8.83
2018-09-17T05:38:55.655Z,8.90
2018-09-17T05:41:24.184Z,8.53
2018-09-17T05:43:52.440Z,8.43
2018-09-17T05:46:20.698Z,10.30
2018-09-17T05:48:48.980Z,8.77
2018-09-17T05:51:17.233Z,9.50
2018-09-17T05:53:45.562Z,8.07
2018-09-17T05:56:13.787Z,6.97
2018-09-17T05:58:42.134Z,7.60
2018-09-17T06:01:10.338Z,6.80
2018-09-17T06:03:38.595Z,7.30
2018-09-17T06:06:06.897Z,8.03
2018-09-17T06:08:35.171Z,7.47
2018-09-17T06:11:03.487Z,6.87
2018-09-17T06:13:31.737Z,10.27
2018-09-17T06:16:00.002Z,8.87
2018-09-17T06:18:28.262Z,7.07
2018-09-17T06:20:56.529Z,7.93
2018-09-17T06:23:24.880Z,7.40
2018-09-17T06:25:53.110Z,8.03
2018-09-17T06:28:21.375Z,7.57
2018-09-17T06:30:49.635Z,7.30
2018-09-17T06:33:17.894Z,7.83
2018-09-17T06:35:46.219Z,7.30
2018-09-17T06:38:14.486Z,7.30
2018-09-17T06:40:42.752Z,9.23
2018-09-17T06:43:11.010Z,7.40
2018-09-17T06:45:39.278Z,7.13
2018-09-17T06:48:07.555Z,6.80
2018-09-17T06:50:35.820Z,8.27
2018-09-17T06:53:04.345Z,8.73
2018-09-17T06:55:33.050Z,7.97
2018-09-17T06:58:01.535Z,6.83
2018-09-17T07:00:29.800Z,8.03
2018-09-17T07:02:58.034Z,8.37
2018-09-17T07:05:26.393Z,9.00
2018-09-17T07:07:54.627Z,8.60
2018-09-17T07:10:23.070Z,7.80
2018-09-17T07:12:51.317Z,7.80
2018-09-17T07:15:19.980Z,7.37
2018-09-17T07:17:48.243Z,7.70
2018-09-17T07:20:16.489Z,8.00
2018-09-17T07:22:44.738Z,7.77
2018-09-17T07:25:13.014Z,6.60
2018-09-17T07:27:41.250Z,5.93
2018-09-17T07:30:09.499Z,7.60
2018-09-17T07:32:37.868Z,5.73
2018-09-17T07:35:06.105Z,5.57
2018-09-17T07:37:34.340Z,6.50
2018-09-17T07:40:02.579Z,5.07
2018-09-17T07:42:30.835Z,5.22
2018-09-17T07:44:59.090Z,7.42
2018-09-17T07:47:27.327Z,6.83
2018-09-17T07:49:55.579Z,4.92
2018-09-17T07:52:23.820Z,8.03
2018-09-17T07:54:52.057Z,5.87
2018-09-17T07:57:20.298Z,6.50
2018-09-17T07:59:48.554Z,6.80
2018-09-17T08:02:16.817Z,7.35
2018-09-17T08:04:45.082Z,7.05
2018-09-17T08:07:13.350Z,4.60
2018-09-17T08:09:41.614Z,6.25
2018-09-17T08:12:09.938Z,6.15
2018-09-17T08:14:38.193Z,5.42
2018-09-17T08:17:06.505Z,7.60
2018-09-17T08:19:34.796Z,5.55
2018-09-17T08:22:03.048Z,6.20
2018-09-17T08:24:31.327Z,5.53
2018-09-17T08:27:00.031Z,6.58
2018-09-17T08:29:28.307Z,6.65
2018-09-17T08:31:56.576Z,5.72
2018-09-17T08:34:24.855Z,7.72
2018-09-17T08:36:53.115Z,7.67
2018-09-17T08:39:21.395Z,8.00
2018-09-17T08:41:49.666Z,6.92
2018-09-17T08:44:17.955Z,7.30
2018-09-17T08:46:46.220Z,6.92
2018-09-17T08:49:14.485Z,6.72
2018-09-17T08:51:42.743Z,12.10
2018-09-17T08:54:11.015Z,5.60
2018-09-17T08:56:45.123Z,6.28
2018-09-17T08:59:45.543Z,6.60
2018-09-17T09:02:15.727Z,7.45
2018-09-17T09:04:49.407Z,9.08
2018-09-17T09:07:24.046Z,6.62
2018-09-17T09:09:54.674Z,6.40
2018-09-17T09:12:30.090Z,6.55
2018-09-17T09:15:02.577Z,5.50
2018-09-17T09:17:30.850Z,6.05
2018-09-17T09:19:59.095Z,7.12
2018-09-17T09:22:27.357Z,8.43
2018-09-17T09:24:55.623Z,5.97
2018-09-17T09:27:23.887Z,10.58
2018-09-17T09:29:52.236Z,7.08
2018-09-17T09:32:20.494Z,6.78
2018-09-17T09:34:48.747Z,7.35
2018-09-17T09:37:17.025Z,9.00
2018-09-17T09:39:45.394Z,5.08
2018-09-17T09:42:13.657Z,7.00
2018-09-17T09:44:41.922Z,8.85
2018-09-17T09:47:10.189Z,4.85
2018-09-17T09:49:38.452Z,6.92
2018-09-17T09:52:07.038Z,10.08
2018-09-17T09:54:35.302Z,7.85
2018-09-17T09:57:03.649Z,4.90
2018-09-17T09:59:31.972Z,5.20
2018-09-17T10:02:05.707Z,4.87
2018-09-17T10:04:33.974Z,6.35
2018-09-17T10:07:02.250Z,6.33
2018-09-17T10:09:36.064Z,4.03
2018-09-17T10:12:09.677Z,3.67
2018-09-17T10:14:43.486Z,4.15
2018-09-17T10:17:17.105Z,8.03
2018-09-17T10:19:48.438Z,6.15
2018-09-17T10:22:17.022Z,3.42
2018-09-17T10:24:45.506Z,3.08
2018-09-17T10:27:14.005Z,3.90
2018-09-17T10:29:42.258Z,3.37
2018-09-17T10:32:10.679Z,3.98
2018-09-17T10:34:38.953Z,3.55
2018-09-17T10:37:07.350Z,3.55
2018-09-17T10:39:35.634Z,7.10
2018-09-17T10:42:03.910Z,3.15
2018-09-17T10:44:32.174Z,3.60
2018-09-17T10:47:00.521Z,5.05
2018-09-17T10:49:28.761Z,3.50
2018-09-17T10:51:57.010Z,5.10
2018-09-17T10:54:25.276Z,4.62
2018-09-17T10:56:53.537Z,4.35
2018-09-17T10:59:21.798Z,6.35
2018-09-17T11:01:50.038Z,3.45
2018-09-17T11:04:18.281Z,3.98
2018-09-17T11:06:46.533Z,5.85
2018-09-17T11:09:14.800Z,5.10
2018-09-17T11:11:43.049Z,4.40
2018-09-17T11:14:11.302Z,3.52
2018-09-17T11:16:39.542Z,4.17
2018-09-17T11:19:07.789Z,4.83
2018-09-17T11:21:36.042Z,4.67
2018-09-17T11:24:04.294Z,3.17
2018-09-17T11:26:32.527Z,3.00
2018-09-17T11:29:00.777Z,5.05
2018-09-17T11:31:29.046Z,4.40
2018-09-17T11:33:57.267Z,11.38
2018-09-17T11:36:25.524Z,6.80
2018-09-17T11:38:53.759Z,3.12
2018-09-17T11:41:21.992Z,2.60
2018-09-17T11:43:50.233Z,2.60
2018-09-17T11:46:18.485Z,3.17
2018-09-17T11:48:46.795Z,3.47
2018-09-17T11:51:15.067Z,3.37
2018-09-17T11:53:43.307Z,3.37
2018-09-17T11:56:11.552Z,2.90
2018-09-17T11:58:39.802Z,2.90
2018-09-17T12:01:13.545Z,2.70
2018-09-17T12:03:47.316Z,4.65
2018-09-17T12:06:23.790Z,2.92
2018-09-17T12:08:52.052Z,3.10
2018-09-17T12:11:20.313Z,6.08
2018-09-17T12:13:48.790Z,4.45
2018-09-17T12:16:17.076Z,3.37
2018-09-17T12:18:45.342Z,2.90
2018-09-17T12:21:13.619Z,2.70
2018-09-17T12:23:41.890Z,2.45
2018-09-17T12:26:10.190Z,3.92
2018-09-17T12:28:38.452Z,2.95
2018-09-17T12:31:06.936Z,4.95
2018-09-17T12:33:35.223Z,2.90
2018-09-17T12:36:03.966Z,3.65
2018-09-17T12:38:31.779Z,4.50
2018-09-17T12:41:00.048Z,3.12
2018-09-17T12:43:28.311Z,7.12
2018-09-17T12:45:56.593Z,3.17
2018-09-17T12:48:24.849Z,2.85
2018-09-17T12:50:53.113Z,4.33
2018-09-17T12:53:21.398Z,5.92
2018-09-17T12:55:49.658Z,4.25
2018-09-17T12:58:17.955Z,3.10
2018-09-17T13:00:46.221Z,3.47
2018-09-17T13:03:14.545Z,3.95
2018-09-17T13:05:42.861Z,3.90
2018-09-17T13:08:11.135Z,3.17
2018-09-17T13:10:39.395Z,4.70
2018-09-17T13:13:07.675Z,4.22
2018-09-17T13:15:40.161Z,3.37
2018-09-17T13:18:08.831Z,2.70
2018-09-17T13:20:37.082Z,3.12
2018-09-17T13:23:05.350Z,3.35
2018-09-17T13:25:33.629Z,2.77
2018-09-17T13:28:01.889Z,2.60
2018-09-17T13:30:30.163Z,3.50
2018-09-17T13:32:58.568Z,2.70
2018-09-17T13:35:26.832Z,4.00
2018-09-17T13:37:55.098Z,5.58
2018-09-17T13:40:23.592Z,3.52
2018-09-17T13:42:51.860Z,2.77
2018-09-17T13:45:20.125Z,5.00
2018-09-17T13:47:48.497Z,5.78
2018-09-17T13:50:17.091Z,3.17
2018-09-17T13:52:45.502Z,5.08
2018-09-17T13:55:13.787Z,3.75
2018-09-17T13:57:42.073Z,4.45
2018-09-17T14:00:10.345Z,3.25
2018-09-17T14:02:38.632Z,2.70
2018-09-17T14:05:06.907Z,3.72
2018-09-17T14:07:35.165Z,2.83
2018-09-17T14:10:03.691Z,3.70
2018-09-17T14:12:31.896Z,5.78
2018-09-17T14:15:00.154Z,3.12
2018-09-17T14:17:28.578Z,2.75
2018-09-17T14:19:56.855Z,3.45
2018-09-17T14:22:25.141Z,2.70
2018-09-17T14:24:53.465Z,2.55
2018-09-17T14:27:21.739Z,2.70
2018-09-17T14:29:50.282Z,2.58
2018-09-17T14:32:23.958Z,3.20
2018-09-17T14:34:52.291Z,3.62
2018-09-17T14:37:20.551Z,4.17
2018-09-17T14:39:48.819Z,3.25
2018-09-17T14:42:17.236Z,4.55
2018-09-17T14:44:45.659Z,5.20
2018-09-17T14:47:13.942Z,2.60
2018-09-17T14:49:43.021Z,3.15
2018-09-17T14:52:11.336Z,2.65
2018-09-17T14:54:39.620Z,5.87
2018-09-17T14:57:07.942Z,4.75
2018-09-17T14:59:36.183Z,2.87
2018-09-17T15:02:04.508Z,2.95
2018-09-17T15:04:32.806Z,3.00
2018-09-17T15:07:01.097Z,4.45
2018-09-17T15:09:29.339Z,2.70
2018-09-17T15:11:57.799Z,5.67
2018-09-17T15:14:27.389Z,4.72
2018-09-17T15:16:55.630Z,3.80
2018-09-17T15:19:23.870Z,4.85
2018-09-17T15:21:52.120Z,2.45
2018-09-17T15:24:20.368Z,3.50
2018-09-17T15:26:48.639Z,4.00
2018-09-17T15:29:16.883Z,2.85
2018-09-17T15:31:45.127Z,6.08
2018-09-17T15:34:13.519Z,4.40
2018-09-17T15:36:41.711Z,3.40
2018-09-17T15:39:11.734Z,2.95
2018-09-17T15:41:40.023Z,2.80
2018-09-17T15:44:08.246Z,3.30
2018-09-17T15:46:36.556Z,4.90
2018-09-17T15:49:04.963Z,3.65
2018-09-17T15:51:33.354Z,3.25
2018-09-17T15:54:03.106Z,3.00
2018-09-17T15:56:31.420Z,3.07
2018-09-17T15:58:59.671Z,3.17
2018-09-17T16:01:27.917Z,2.58
2018-09-17T16:03:57.491Z,3.35
2018-09-17T16:06:25.766Z,3.10
2018-09-17T16:08:54.218Z,3.40
2018-09-17T16:11:22.454Z,3.17
2018-09-17T16:13:50.695Z,4.53
2018-09-17T16:16:18.946Z,3.57
2018-09-17T16:18:47.189Z,3.10
2018-09-17T16:21:15.427Z,4.90
2018-09-17T16:23:43.672Z,3.43
2018-09-17T16:26:11.911Z,3.67
2018-09-17T16:28:40.306Z,3.00
2018-09-17T16:31:08.545Z,3.67
2018-09-17T16:33:37.294Z,3.20
2018-09-17T16:36:05.491Z,3.63
2018-09-17T16:38:33.738Z,4.83
2018-09-17T16:41:01.979Z,4.63
2018-09-17T16:43:30.231Z,4.00
2018-09-17T16:45:58.515Z,3.03
2018-09-17T16:48:26.766Z,3.70
2018-09-17T16:50:55.105Z,3.87
2018-09-17T16:53:23.437Z,2.53
2018-09-17T16:55:51.594Z,2.50
2018-09-17T17:01:23.301Z,2.73
2018-09-17T17:03:51.683Z,3.33
2018-09-17T17:06:19.973Z,4.47
2018-09-17T17:08:48.209Z,2.83
2018-09-17T17:11:16.528Z,6.23
2018-09-17T17:13:44.829Z,2.60
2018-09-17T17:16:13.506Z,5.27
2018-09-17T17:18:42.051Z,2.70
2018-09-17T17:21:10.299Z,2.30
2018-09-17T17:23:38.702Z,3.17
2018-09-17T17:26:07.057Z,4.33
2018-09-17T17:28:35.338Z,2.97
2018-09-17T17:31:04.213Z,2.97
2018-09-17T17:33:32.780Z,4.10
2018-09-17T17:36:01.430Z,4.20
2018-09-17T17:38:29.776Z,2.77
2018-09-17T17:40:58.018Z,3.63
2018-09-17T17:43:26.292Z,4.73
2018-09-17T17:45:54.951Z,3.33
2018-09-17T17:48:23.370Z,5.50
2018-09-17T17:50:52.096Z,11.00
2018-09-17T17:53:20.884Z,9.73
2018-09-17T18:00:20.924Z,7.90
2018-09-17T18:02:49.307Z,5.30
2018-09-17T18:05:17.571Z,4.73
2018-09-17T18:07:45.970Z,3.93
2018-09-17T18:10:15.301Z,5.67
2018-09-17T18:12:43.753Z,5.63
2018-09-17T18:15:12.780Z,3.50
2018-09-17T18:17:41.054Z,4.83
2018-09-17T18:20:09.672Z,4.87
2018-09-17T18:22:37.993Z,4.73
2018-09-17T18:25:06.723Z,6.60
2018-09-17T18:27:34.992Z,4.70
2018-09-17T18:30:03.246Z,5.43
2018-09-17T18:32:31.490Z,4.90
2018-09-17T18:34:59.741Z,4.43
2018-09-17T18:37:27.977Z,3.97
2018-09-17T18:39:56.252Z,3.90
2018-09-17T18:42:24.534Z,4.97
2018-09-17T18:44:52.858Z,4.47
2018-09-17T18:47:21.042Z,6.87
2018-09-17T18:49:49.413Z,5.33
2018-09-17T18:52:17.761Z,4.37
2018-09-17T18:54:45.990Z,3.40
2018-09-17T18:57:14.319Z,4.93
2018-09-17T18:59:42.641Z,5.37
2018-09-17T19:02:10.905Z,3.87
2018-09-17T19:04:39.131Z,7.97
2018-09-17T19:07:07.363Z,5.07
2018-09-17T19:09:41.053Z,6.07
2018-09-17T19:12:09.404Z,9.03
2018-09-17T19:14:43.289Z,7.87
2018-09-17T19:17:17.567Z,5.37
2018-09-17T19:19:46.115Z,7.53
2018-09-17T19:22:20.097Z,6.27
2018-09-17T19:24:48.177Z,5.63
2018-09-17T19:27:16.397Z,9.27
2018-09-17T19:29:44.687Z,5.77
2018-09-17T19:32:13.005Z,6.40
2018-09-17T19:34:42.619Z,6.57
2018-09-17T19:37:16.257Z,4.97
2018-09-17T19:39:49.935Z,5.20
2018-09-17T19:42:18.172Z,11.03
2018-09-17T19:44:51.814Z,6.83
2018-09-17T19:47:20.038Z,9.57
2018-09-17T19:49:48.300Z,6.63
2018-09-17T19:52:22.300Z,7.53
2018-09-17T19:54:50.777Z,7.13
2018-09-17T19:57:24.418Z,12.53
2018-09-17T19:59:56.066Z,5.83
2018-09-17T20:02:24.634Z,8.07
2018-09-17T20:04:58.314Z,9.47
2018-09-17T20:07:26.859Z,7.90
2018-09-17T20:09:55.081Z,9.63
2018-09-17T20:12:23.535Z,5.37
2018-09-17T20:14:51.925Z,4.83
2018-09-17T20:17:20.216Z,6.57
2018-09-17T20:19:48.444Z,6.17
2018-09-17T20:22:16.677Z,4.93
2018-09-17T20:24:44.918Z,8.63
2018-09-17T20:27:13.133Z,9.87
2018-09-17T20:29:41.361Z,7.57
2018-09-17T20:32:09.586Z,6.17
2018-09-17T20:34:37.829Z,7.50
2018-09-17T20:37:06.097Z,9.67
2018-09-17T20:39:34.309Z,6.07
2018-09-17T20:42:02.549Z,7.67
2018-09-17T20:44:30.797Z,7.73
2018-09-17T20:46:59.022Z,10.40
2018-09-17T20:49:27.272Z,6.07
2018-09-17T20:51:55.504Z,11.97
2018-09-17T20:54:23.729Z,6.43
2018-09-17T20:56:52.701Z,5.93
2018-09-17T20:59:21.405Z,6.90
2018-09-17T21:01:49.833Z,5.87
2018-09-17T21:04:18.035Z,9.43
2018-09-17T21:06:46.279Z,6.07
2018-09-17T21:09:14.553Z,7.07
2018-09-17T21:11:42.747Z,8.37
2018-09-17T21:14:10.973Z,8.70
2018-09-17T21:16:39.442Z,6.57
2018-09-17T21:19:07.870Z,7.57
2018-09-17T21:21:36.106Z,7.07
2018-09-17T21:24:04.405Z,6.70
2018-09-17T21:26:32.638Z,8.80
2018-09-17T21:29:00.861Z,6.43
2018-09-17T21:31:29.090Z,6.23
2018-09-17T21:33:57.332Z,9.17
2018-09-17T21:36:25.561Z,5.90
2018-09-17T21:38:53.793Z,8.27
2018-09-17T21:41:22.023Z,6.27
2018-09-17T21:43:50.248Z,7.43
2018-09-17T21:46:18.465Z,7.40
2018-09-17T21:48:46.731Z,6.80
2018-09-17T21:51:14.958Z,6.97
2018-09-17T21:53:43.182Z,7.07
2018-09-17T21:56:11.421Z,6.67
2018-09-17T21:58:39.656Z,7.93
2018-09-17T22:01:07.964Z,7.23
2018-09-17T22:03:36.180Z,8.60
2018-09-17T22:06:04.403Z,8.63
2018-09-17T22:08:32.734Z,8.17
2018-09-17T22:11:00.957Z,8.43
2018-09-17T22:13:29.224Z,6.63
2018-09-17T22:15:57.579Z,9.30
2018-09-17T22:18:25.817Z,6.70
2018-09-17T22:20:54.054Z,9.30
2018-09-17T22:23:22.283Z,6.63
2018-09-17T22:25:50.518Z,6.23
2018-09-17T22:28:18.729Z,6.83
2018-09-17T22:30:46.955Z,6.37
2018-09-17T22:33:15.194Z,7.63
2018-09-17T22:35:43.437Z,7.10
2018-09-17T22:38:11.681Z,7.77
2018-09-17T22:40:39.907Z,8.73
2018-09-17T22:43:08.134Z,7.70
2018-09-17T22:45:36.353Z,6.17
2018-09-17T22:48:04.575Z,7.93
2018-09-17T22:50:32.817Z,7.63
2018-09-17T22:53:01.042Z,8.17
2018-09-17T22:55:29.302Z,6.93
2018-09-17T22:57:57.526Z,7.37
2018-09-17T23:00:25.882Z,7.47
2018-09-17T23:02:54.107Z,7.93
2018-09-17T23:05:22.341Z,7.47
2018-09-17T23:07:50.567Z,7.37
2018-09-17T23:10:18.862Z,7.07
2018-09-17T23:12:47.084Z,8.37
2018-09-17T23:15:15.310Z,8.53
2018-09-17T23:17:43.526Z,7.30
2018-09-17T23:20:11.750Z,7.93
2018-09-17T23:22:39.977Z,7.43
2018-09-17T23:25:08.200Z,7.33
2018-09-17T23:27:36.417Z,8.40
2018-09-17T23:30:05.248Z,7.07
2018-09-17T23:32:33.475Z,7.13
2018-09-17T23:35:01.730Z,6.27
2018-09-17T23:37:29.976Z,6.97
2018-09-17T23:39:58.272Z,7.27
2018-09-17T23:42:26.496Z,6.97
2018-09-17T23:44:54.713Z,7.40
2018-09-17T23:47:22.936Z,6.50
2018-09-17T23:49:51.164Z,6.93
2018-09-17T23:52:19.446Z,6.47
2018-09-17T23:54:47.635Z,6.80
2018-09-17T23:57:15.861Z,7.63
2018-09-17T23:59:44.116Z,6.73
